Terminal Aerodrome Forecast
Issued by NWS Charleston, WV

Current Version | Previous Version | Graphics & Text | Print | Product List | Glossary On
Versions: 1 2 3 4 5 6 7 8 9 10 11 12 13 14 15 16 17 18 19 20 21 22 23 24 25 26 27 28 29 30 31 32 33 34 35
000
FTUS41 KRLX 201600 AAA
TAFPKB
TAF AMD
KPKB 201606Z 2016/2112 19006KT P6SM BKN080
     FM210200 21005KT 6SM -SHRA BR BKN050
     FM210500 23004KT 4SM -SHRA BR OVC030=

USA.gov is the U.S. government's official web portal to all federal, state and local government web resources and services.